Terminal Aerodrome Forecast
Issued by NWS Binghamton, NY

Home | Current Version | Previous Version | Text Only | Print | Product List | Glossary On
Versions: 1 2 3 4 5 6 7 8 9 10 11 12 13 14 15 16 17 18
500
FTUS41 KBGM 220540
TAFSYR
TAF
KSYR 220540Z 2206/2306 30006KT P6SM BKN025 OVC090
     FM220900 36005KT P6SM OVC090
     FM221600 04005KT 2SM -SN OVC025
     FM222200 05004KT P6SM OVC035=

USA.gov is the U.S. government's official web portal to all federal, state and local government web resources and services.